Time;durP1;ratioP1;P1;durP2;ratioP2;P2;SDS_P1;SDS_P2;PMS_P1;PMS_P2;Temp;Humidity;BMP_temperature;BMP_pressure;BME280_temperature;BME280_humidity;BME280_pressure;Samples;Min_cycle;Max_cycle;Signal;HPM_P1;HPM_P2
2024/03/31 00:00:30;;;;;;;28.60;5.07;;;;;;;14.55;53.63;95841.44;5020063;28;20219;-70
2024/03/31 00:02:56;;;;;;;37.63;5.77;;;;;;;14.57;53.61;95843.84;5036811;28;20578;-69
2024/03/31 00:05:22;;;;;;;30.27;4.63;;;;;;;14.59;53.54;95844.44;5038075;28;20509;-71
2024/03/31 00:07:47;;;;;;;24.27;4.40;;;;;;;14.59;53.49;95840.00;5014333;28;20172;-72
2024/03/31 00:10:13;;;;;;;32.27;4.80;;;;;;;14.62;53.35;95836.13;5034445;28;20370;-70
2024/03/31 00:12:42;;;;;;;19.40;5.60;;;;;;;14.56;53.50;95844.88;5038681;28;20221;-70
2024/03/31 00:15:08;;;;;;;22.20;5.30;;;;;;;14.37;54.47;95838.66;5040761;28;20210;-71
2024/03/31 00:17:34;;;;;;;17.43;5.70;;;;;;;14.36;54.33;95847.63;5038341;28;20535;-72
2024/03/31 00:20:00;;;;;;;21.53;4.70;;;;;;;14.44;54.20;95855.28;5040663;28;20429;-71
2024/03/31 00:22:25;;;;;;;23.77;5.27;;;;;;;14.55;54.21;95861.72;5037569;28;20199;-70
2024/03/31 00:24:50;;;;;;;20.10;6.53;;;;;;;14.62;53.84;95866.97;5040077;28;20230;-69
2024/03/31 00:27:16;;;;;;;26.73;5.33;;;;;;;14.59;53.67;95871.63;5036257;28;20213;-71
2024/03/31 00:29:41;;;;;;;27.73;5.10;;;;;;;14.61;53.67;95873.25;5039425;28;20183;-70
2024/03/31 00:32:07;;;;;;;29.73;5.13;;;;;;;14.67;53.11;95875.03;5042126;28;20293;-70
2024/03/31 00:34:33;;;;;;;35.13;5.53;;;;;;;14.68;52.89;95876.69;5038719;28;20248;-69
2024/03/31 00:36:58;;;;;;;30.33;5.07;;;;;;;14.70;52.92;95885.19;5044988;28;20179;-71
2024/03/31 00:39:24;;;;;;;26.17;5.40;;;;;;;14.77;53.04;95890.44;5036456;28;20710;-71
2024/03/31 00:41:49;;;;;;;43.33;5.67;;;;;;;14.78;52.96;95884.94;5025261;28;20202;-70
2024/03/31 00:44:15;;;;;;;35.30;5.57;;;;;;;14.82;53.01;95878.25;5033793;28;20196;-71
2024/03/31 00:46:40;;;;;;;33.93;4.93;;;;;;;14.82;52.96;95883.50;5027206;28;20183;-71
2024/03/31 00:49:06;;;;;;;28.30;6.40;;;;;;;14.78;53.04;95881.50;5034593;28;20270;-72
2024/03/31 00:51:31;;;;;;;28.63;4.83;;;;;;;14.76;53.19;95873.78;5040091;28;20175;-71
2024/03/31 00:53:57;;;;;;;29.80;5.00;;;;;;;14.77;53.21;95879.91;5041018;28;20220;-70
2024/03/31 00:56:23;;;;;;;29.83;5.40;;;;;;;14.80;53.37;95876.84;5032578;28;20234;-69
2024/03/31 00:58:48;;;;;;;27.43;5.90;;;;;;;14.82;53.37;95870.31;5032740;28;20695;-71
2024/03/31 01:01:14;;;;;;;28.23;5.07;;;;;;;14.83;53.47;95869.31;5028527;28;20457;-71
2024/03/31 01:03:39;;;;;;;18.43;5.17;;;;;;;14.82;53.99;95872.13;5041799;28;20189;-71
2024/03/31 01:06:09;;;;;;;26.93;6.10;;;;;;;14.83;53.97;95864.03;5036693;28;20780;-71
2024/03/31 01:08:35;;;;;;;30.60;4.80;;;;;;;14.83;54.01;95869.31;5009870;28;20636;-71
2024/03/31 01:11:00;;;;;;;41.77;5.43;;;;;;;14.82;54.20;95872.97;5032251;28;20414;-69
2024/03/31 01:13:25;;;;;;;25.90;5.03;;;;;;;14.78;54.02;95866.50;5031022;28;20267;-71
2024/03/31 01:15:51;;;;;;;27.30;4.77;;;;;;;14.82;54.00;95854.50;5025529;28;20768;-70
2024/03/31 01:18:17;;;;;;;22.10;6.23;;;;;;;14.83;54.31;95860.56;5030284;28;20267;-72
2024/03/31 01:20:42;;;;;;;22.53;4.27;;;;;;;14.64;54.89;95860.47;5040389;28;20799;-71
2024/03/31 01:23:11;;;;;;;20.00;4.27;;;;;;;14.62;55.40;95866.97;5035006;28;20222;-69
2024/03/31 01:25:36;;;;;;;25.60;5.13;;;;;;;14.72;55.32;95856.81;5028632;28;20221;-70
2024/03/31 01:28:03;;;;;;;24.07;5.60;;;;;;;14.76;55.30;95852.69;5034402;28;20517;-70
2024/03/31 01:30:28;;;;;;;42.97;5.80;;;;;;;14.77;55.41;95846.41;5042567;28;20674;-70
2024/03/31 01:32:55;;;;;;;26.13;5.23;;;;;;;14.78;55.09;95840.13;5034227;28;20418;-70
2024/03/31 01:35:20;;;;;;;29.80;6.07;;;;;;;14.74;55.04;95844.22;5035448;28;20719;-71
2024/03/31 01:37:49;;;;;;;29.03;5.70;;;;;;;14.63;55.32;95847.47;5040876;28;20462;-69
2024/03/31 01:40:15;;;;;;;34.17;5.73;;;;;;;14.48;56.00;95845.13;5040879;28;20172;-70
2024/03/31 01:42:40;;;;;;;22.33;6.30;;;;;;;14.49;55.80;95847.53;5030242;28;20442;-70
2024/03/31 01:45:06;;;;;;;22.13;6.13;;;;;;;14.49;56.07;95842.25;5035816;28;20207;-71
2024/03/31 01:47:31;;;;;;;22.13;5.20;;;;;;;14.54;55.97;95842.44;5042125;28;20597;-70
2024/03/31 01:49:56;;;;;;;22.37;5.83;;;;;;;14.58;56.10;95840.19;5031859;28;20263;-70
2024/03/31 01:52:22;;;;;;;24.17;6.30;;;;;;;14.59;55.78;95834.72;5031388;28;20179;-71
2024/03/31 01:54:47;;;;;;;24.80;5.03;;;;;;;14.64;55.93;95828.00;5030980;28;20199;-70
2024/03/31 01:57:13;;;;;;;28.03;5.60;;;;;;;14.64;55.73;95828.00;5030943;28;20183;-70
2024/03/31 01:59:38;;;;;;;29.73;5.50;;;;;;;14.63;54.98;95832.47;5031279;28;20198;-70
2024/03/31 02:02:04;;;;;;;31.73;4.20;;;;;;;14.64;55.17;95817.44;5044924;28;20235;-70
2024/03/31 02:04:29;;;;;;;31.90;3.97;;;;;;;14.66;54.92;95818.88;5033674;28;20604;-70
2024/03/31 02:06:55;;;;;;;32.40;4.03;;;;;;;14.65;54.68;95805.88;5029599;28;20274;-70
2024/03/31 02:09:20;;;;;;;27.43;4.67;;;;;;;14.65;54.72;95814.63;5033235;28;20179;-71
2024/03/31 02:11:45;;;;;;;31.13;5.00;;;;;;;14.61;55.23;95807.34;5032333;28;20597;-70
2024/03/31 02:14:11;;;;;;;34.03;5.50;;;;;;;14.63;55.37;95811.38;5032516;28;20191;-70
2024/03/31 02:16:36;;;;;;;39.83;5.00;;;;;;;14.56;55.55;95811.41;5041805;28;20587;-70
2024/03/31 02:19:02;;;;;;;24.73;4.07;;;;;;;14.56;55.38;95810.59;5036016;28;20180;-70
2024/03/31 02:21:28;;;;;;;27.83;4.30;;;;;;;14.51;55.50;95800.69;5035040;28;20702;-70
2024/03/31 02:23:53;;;;;;;17.80;4.17;;;;;;;14.53;55.57;95787.31;5035467;28;20184;-69
2024/03/31 02:26:19;;;;;;;28.20;4.57;;;;;;;14.49;55.53;95778.22;5049413;28;20202;-70
2024/03/31 02:28:44;;;;;;;24.07;4.00;;;;;;;14.46;55.57;95776.00;5042758;28;20194;-70
2024/03/31 02:31:09;;;;;;;34.27;4.43;;;;;;;14.43;55.42;95759.56;5035795;28;20858;-70
2024/03/31 02:33:35;;;;;;;22.70;3.87;;;;;;;14.43;55.69;95761.41;5048989;28;20669;-71
2024/03/31 02:36:01;;;;;;;35.83;4.20;;;;;;;14.40;55.61;95760.03;5033174;28;20211;-70
2024/03/31 02:38:27;;;;;;;22.77;3.77;;;;;;;14.42;55.84;95757.16;5045768;28;20183;-70
2024/03/31 02:40:53;;;;;;;29.70;4.67;;;;;;;14.42;55.73;95750.06;5036033;28;20183;-71
2024/03/31 02:43:18;;;;;;;25.43;4.00;;;;;;;14.40;55.63;95748.66;5034647;28;20765;-70
2024/03/31 02:45:43;;;;;;;14.40;3.87;;;;;;;14.36;55.55;95771.19;5038510;28;20517;-71
2024/03/31 02:48:09;;;;;;;16.63;3.83;;;;;;;14.33;55.67;95796.13;5038280;28;20180;-70
2024/03/31 02:50:34;;;;;;;19.13;4.13;;;;;;;14.25;55.83;95789.25;5049589;28;20195;-71
2024/03/31 02:53:00;;;;;;;20.77;3.70;;;;;;;14.33;55.72;95790.06;5042183;28;20203;-70
2024/03/31 02:55:25;;;;;;;24.37;4.27;;;;;;;14.28;56.02;95777.50;5042624;28;20292;-70
2024/03/31 02:57:51;;;;;;;29.83;4.50;;;;;;;14.21;55.99;95763.56;5039680;28;20199;-70
2024/03/31 03:00:17;;;;;;;31.10;4.10;;;;;;;14.24;56.31;95771.03;5036704;28;20187;-70
2024/03/31 03:02:42;;;;;;;37.47;4.70;;;;;;;14.19;56.01;95779.59;5035959;28;20208;-70
2024/03/31 03:05:08;;;;;;;25.63;4.30;;;;;;;14.23;56.16;95786.06;5036997;28;20199;-71
2024/03/31 03:07:34;;;;;;;34.30;4.97;;;;;;;14.24;56.06;95777.09;5042049;28;20183;-70
2024/03/31 03:09:59;;;;;;;32.80;5.03;;;;;;;14.21;56.20;95769.66;5041206;28;20434;-70
2024/03/31 03:12:25;;;;;;;25.97;4.37;;;;;;;14.13;56.15;95749.63;5045543;28;20262;-70
2024/03/31 03:14:54;;;;;;;18.53;3.60;;;;;;;14.08;56.52;95720.44;5045037;28;20210;-69
2024/03/31 03:17:19;;;;;;;18.90;3.93;;;;;;;14.08;56.49;95735.47;5041202;28;20196;-70
2024/03/31 03:19:45;;;;;;;21.40;4.70;;;;;;;14.04;56.58;95760.59;5034185;28;20977;-70
2024/03/31 03:22:10;;;;;;;26.60;5.10;;;;;;;14.00;56.85;95775.19;5033393;28;20257;-69
2024/03/31 03:24:36;;;;;;;28.03;4.40;;;;;;;13.97;56.81;95771.16;5034962;28;20208;-71
2024/03/31 03:27:02;;;;;;;36.20;4.87;;;;;;;13.91;57.03;95767.53;5036661;28;20188;-70
2024/03/31 03:29:27;;;;;;;26.70;3.90;;;;;;;13.92;57.24;95768.34;5037265;28;20214;-71
2024/03/31 03:31:53;;;;;;;20.97;3.83;;;;;;;13.95;56.83;95765.28;5037229;28;20434;-71
2024/03/31 03:34:18;;;;;;;28.23;3.80;;;;;;;13.88;56.91;95757.41;5036057;28;20211;-70
2024/03/31 03:36:44;;;;;;;21.37;4.00;;;;;;;13.87;57.14;95761.06;5045712;28;20229;-70
2024/03/31 03:39:09;;;;;;;31.97;4.70;;;;;;;13.87;57.01;95768.16;5048804;28;20267;-70
2024/03/31 03:41:35;;;;;;;33.10;4.27;;;;;;;13.89;56.79;95768.78;5039962;28;20203;-71
2024/03/31 03:44:00;;;;;;;25.10;4.30;;;;;;;13.86;56.70;95766.53;5036755;28;20303;-69
2024/03/31 03:46:26;;;;;;;24.43;4.07;;;;;;;13.70;57.19;95759.91;5037237;28;20188;-70
2024/03/31 03:48:51;;;;;;;26.07;4.67;;;;;;;13.62;57.20;95759.09;5036819;28;20605;-71
2024/03/31 03:51:17;;;;;;;25.43;4.57;;;;;;;13.67;57.12;95755.88;5047496;28;20179;-70
2024/03/31 03:53:42;;;;;;;23.97;4.40;;;;;;;13.62;56.94;95753.84;5043131;28;20263;-70
2024/03/31 03:56:08;;;;;;;19.73;4.27;;;;;;;13.56;57.20;95754.69;5032258;28;20212;-70
2024/03/31 03:58:33;;;;;;;26.27;5.43;;;;;;;13.51;57.09;95752.69;5032279;28;20180;-71
2024/03/31 04:00:59;;;;;;;60.93;21.47;;;;;;;13.51;57.19;95751.84;5031303;28;20266;-70
2024/03/31 04:03:24;;;;;;;100.33;34.00;;;;;;;13.32;57.28;95754.31;5043760;28;20233;-72
2024/03/31 04:05:55;;;;;;;93.60;37.07;;;;;;;13.25;57.65;95748.22;5030816;28;20211;-70
2024/03/31 04:08:21;;;;;;;53.47;17.03;;;;;;;13.33;57.57;95755.09;5035902;28;20181;-71
2024/03/31 04:10:47;;;;;;;30.20;7.80;;;;;;;13.32;57.38;95754.31;5033395;28;20432;-70
2024/03/31 04:13:12;;;;;;;26.60;5.00;;;;;;;13.28;57.40;95747.81;5040910;28;20227;-71
2024/03/31 04:15:38;;;;;;;19.30;4.20;;;;;;;13.19;57.32;95734.06;5033707;28;20474;-70
2024/03/31 04:18:03;;;;;;;24.97;4.10;;;;;;;13.16;57.30;95749.47;5031160;28;20668;-70
2024/03/31 04:20:29;;;;;;;19.77;4.90;;;;;;;13.14;57.22;95752.31;5033275;28;20564;-70
2024/03/31 04:22:54;;;;;;;13.07;4.20;;;;;;;13.09;57.09;95775.78;5043938;28;20289;-71
2024/03/31 04:25:20;;;;;;;29.40;8.13;;;;;;;13.00;58.01;95777.78;5037421;28;20293;-70
2024/03/31 04:27:45;;;;;;;34.03;8.87;;;;;;;13.04;57.63;95771.13;5037764;28;20643;-70
2024/03/31 04:30:11;;;;;;;19.67;7.40;;;;;;;13.05;57.58;95778.00;5040899;28;20183;-71
2024/03/31 04:32:36;;;;;;;26.43;6.80;;;;;;;13.02;57.57;95772.34;5042720;28;20184;-71
2024/03/31 04:35:02;;;;;;;25.03;7.30;;;;;;;12.97;57.84;95778.22;5037600;28;20207;-70
2024/03/31 04:37:27;;;;;;;35.50;7.20;;;;;;;12.98;57.56;95765.84;5033062;28;20198;-70
2024/03/31 04:39:54;;;;;;;35.30;7.13;;;;;;;13.01;57.49;95768.09;5044484;28;20183;-70
2024/03/31 04:42:20;;;;;;;28.83;6.90;;;;;;;12.97;57.33;95769.50;5041054;28;20297;-70
2024/03/31 04:44:45;;;;;;;29.90;5.27;;;;;;;12.95;57.38;95774.16;5029756;28;20496;-69
2024/03/31 04:47:11;;;;;;;29.50;6.90;;;;;;;12.83;57.63;95780.00;5036584;28;20571;-70
2024/03/31 04:49:40;;;;;;;17.50;6.80;;;;;;;12.81;57.31;95783.84;5035700;28;20214;-70
2024/03/31 04:52:06;;;;;;;30.53;7.50;;;;;;;12.83;57.28;95795.00;5038325;28;20187;-70
2024/03/31 04:54:31;;;;;;;26.40;7.23;;;;;;;12.85;57.00;95790.34;5031979;28;20450;-70
2024/03/31 04:56:57;;;;;;;25.20;6.67;;;;;;;12.87;57.59;95789.13;5036132;28;20195;-70
2024/03/31 04:59:22;;;;;;;25.33;5.97;;;;;;;12.80;57.95;95787.50;5026848;28;20188;-71
2024/03/31 05:01:48;;;;;;;21.43;6.57;;;;;;;12.84;58.27;95789.50;5025565;28;20267;-70
2024/03/31 05:04:13;;;;;;;22.63;6.40;;;;;;;12.76;58.19;95802.88;5039251;28;20682;-69
2024/03/31 05:06:39;;;;;;;25.20;7.10;;;;;;;12.72;58.09;95801.63;5044776;28;20188;-71
2024/03/31 05:09:04;;;;;;;24.23;6.90;;;;;;;12.82;58.33;95798.63;5032601;28;20191;-69
2024/03/31 05:11:29;;;;;;;30.13;6.83;;;;;;;12.87;57.98;95802.25;5038977;28;20736;-70
2024/03/31 05:13:55;;;;;;;24.70;5.67;;;;;;;12.84;57.89;95807.91;5029314;28;20585;-70
2024/03/31 05:16:21;;;;;;;31.23;6.40;;;;;;;12.86;58.02;95794.56;5039889;28;20243;-70
2024/03/31 05:18:50;;;;;;;25.20;6.60;;;;;;;12.80;58.39;95790.13;5029827;28;20661;-70
2024/03/31 05:21:16;;;;;;;26.33;6.37;;;;;;;12.79;58.68;95789.28;5034254;28;20187;-70
2024/03/31 05:23:46;;;;;;;35.30;7.03;;;;;;;12.81;58.48;95804.88;5025108;28;20430;-71
2024/03/31 05:26:12;;;;;;;22.97;5.67;;;;;;;12.90;58.57;95807.13;5028271;28;20211;-71
2024/03/31 05:28:38;;;;;;;23.07;5.97;;;;;;;12.95;59.24;95810.97;5027386;28;20438;-71
2024/03/31 05:31:04;;;;;;;49.03;6.17;;;;;;;12.99;59.71;95810.34;5031760;28;20441;-68
2024/03/31 05:33:30;;;;;;;24.37;6.07;;;;;;;13.09;59.92;95790.75;5034874;28;20190;-71
2024/03/31 05:35:55;;;;;;;24.07;5.90;;;;;;;13.05;59.87;95785.06;5031415;28;20195;-70
2024/03/31 05:38:20;;;;;;;24.53;4.73;;;;;;;12.99;60.04;95791.16;5038014;28;20957;-70
2024/03/31 05:40:47;;;;;;;23.30;4.90;;;;;;;13.02;60.16;95791.53;5032284;28;20238;-70
2024/03/31 05:43:12;;;;;;;14.40;4.40;;;;;;;13.12;60.20;95785.06;5038484;28;20212;-71
2024/03/31 05:45:39;;;;;;;17.07;4.83;;;;;;;13.20;59.97;95783.03;5034419;28;20439;-70
2024/03/31 05:48:08;;;;;;;30.33;7.50;;;;;;;13.23;60.35;95781.03;5042575;28;20192;-70
2024/03/31 05:50:34;;;;;;;17.17;5.80;;;;;;;13.22;60.64;95780.22;5047923;28;20443;-70
2024/03/31 05:53:00;;;;;;;21.33;6.37;;;;;;;13.31;60.95;95773.72;5043252;28;20410;-70
2024/03/31 05:55:25;;;;;;;27.20;7.33;;;;;;;13.37;60.85;95766.84;5040122;28;20681;-70
2024/03/31 05:57:51;;;;;;;22.30;7.77;;;;;;;13.42;60.61;95767.03;5034892;28;20184;-70
2024/03/31 06:00:16;;;;;;;26.10;7.10;;;;;;;13.43;60.76;95770.50;5034919;28;20325;-71
2024/03/31 06:02:42;;;;;;;23.70;7.70;;;;;;;13.45;61.32;95752.69;5031201;28;20218;-70
2024/03/31 06:05:07;;;;;;;36.53;9.00;;;;;;;13.52;61.57;95743.78;5031347;28;20242;-70
2024/03/31 06:07:33;;;;;;;33.90;8.30;;;;;;;13.59;61.26;95749.03;5030691;28;20249;-69
2024/03/31 06:09:59;;;;;;;30.07;7.17;;;;;;;13.66;61.57;95743.75;5030562;28;20191;-70
2024/03/31 06:12:25;;;;;;;25.37;7.20;;;;;;;13.71;61.52;95740.47;5034332;28;20243;-70
2024/03/31 06:14:50;;;;;;;31.53;7.33;;;;;;;13.63;61.68;95738.88;5031196;28;20234;-71
2024/03/31 06:17:16;;;;;;;40.73;11.43;;;;;;;13.70;61.86;95729.13;5036697;28;20430;-71
2024/03/31 06:19:42;;;;;;;31.07;9.67;;;;;;;13.70;61.50;95734.38;5040749;28;20536;-70
2024/03/31 06:22:07;;;;;;;34.93;8.27;;;;;;;13.65;61.91;95731.59;5037383;28;20455;-70
2024/03/31 06:24:33;;;;;;;32.30;7.63;;;;;;;13.71;61.89;95727.31;5031847;28;20227;-71
2024/03/31 06:26:58;;;;;;;23.23;7.73;;;;;;;13.73;61.91;95723.44;5032078;28;20214;-70
2024/03/31 06:29:24;;;;;;;28.80;8.20;;;;;;;13.72;62.25;95719.19;5032298;28;20238;-70
2024/03/31 06:31:49;;;;;;;21.77;7.70;;;;;;;13.74;62.10;95725.06;5026707;28;20575;-69
2024/03/31 06:34:15;;;;;;;24.93;7.43;;;;;;;13.78;62.20;95725.44;5032581;28;20180;-70
2024/03/31 06:36:40;;;;;;;17.70;6.87;;;;;;;13.83;62.15;95726.44;5040085;28;20277;-70
2024/03/31 06:39:06;;;;;;;32.90;7.70;;;;;;;13.85;61.95;95730.69;5036458;28;20227;-69
2024/03/31 06:41:31;;;;;;;26.90;7.10;;;;;;;13.92;62.05;95728.84;5037016;28;20298;-71
2024/03/31 06:43:56;;;;;;;25.53;7.57;;;;;;;13.96;61.86;95728.22;5036891;28;20559;-70
2024/03/31 06:46:22;;;;;;;24.20;7.23;;;;;;;14.02;61.80;95720.47;5029471;28;20216;-70
2024/03/31 06:48:48;;;;;;;18.93;6.93;;;;;;;14.01;61.48;95716.22;5029029;28;20181;-69
2024/03/31 06:51:13;;;;;;;28.90;7.03;;;;;;;13.93;61.30;95723.38;5040424;28;20666;-71
2024/03/31 06:53:38;;;;;;;19.73;6.30;;;;;;;13.96;61.58;95722.13;5033745;28;20626;-70
2024/03/31 06:56:04;;;;;;;32.97;6.80;;;;;;;13.95;61.37;95725.78;5032469;28;20203;-70
2024/03/31 06:58:29;;;;;;;22.23;6.20;;;;;;;13.91;61.76;95719.34;5039209;28;20194;-71
2024/03/31 07:00:59;;;;;;;27.63;6.00;;;;;;;14.01;61.77;95710.97;5036912;28;20215;-70
2024/03/31 07:03:25;;;;;;;23.03;5.30;;;;;;;14.07;61.45;95707.50;5042398;28;20207;-70
2024/03/31 07:05:51;;;;;;;28.23;7.60;;;;;;;14.13;61.42;95701.38;5046126;28;20963;-71
2024/03/31 07:08:16;;;;;;;17.40;5.43;;;;;;;14.20;61.70;95690.81;5042816;28;20176;-68
2024/03/31 07:10:42;;;;;;;23.07;6.40;;;;;;;14.28;61.42;95690.56;5042257;28;20545;-70
2024/03/31 07:13:07;;;;;;;23.57;5.77;;;;;;;14.47;61.34;95701.16;5034945;28;20202;-70
2024/03/31 07:15:33;;;;;;;21.70;5.63;;;;;;;14.67;60.62;95703.66;5045229;28;20206;-70
2024/03/31 07:18:06;;;;;;;23.20;5.83;;;;;;;14.79;60.04;95701.19;5032728;28;20187;-71
2024/03/31 07:20:33;;;;;;;17.97;5.07;;;;;;;14.88;59.38;95713.84;5033802;28;20916;-71
2024/03/31 07:23:02;;;;;;;23.37;4.43;;;;;;;15.01;59.34;95712.13;5034766;28;20755;-71
2024/03/31 07:25:28;;;;;;;26.13;6.17;;;;;;;15.14;59.49;95696.19;5035940;28;20446;-70
2024/03/31 07:27:53;;;;;;;26.50;5.37;;;;;;;15.20;58.72;95690.03;5047981;28;20414;-71
2024/03/31 07:30:19;;;;;;;14.43;4.97;;;;;;;15.40;58.79;95693.50;5039569;28;20614;-70
2024/03/31 07:32:44;;;;;;;24.80;4.17;;;;;;;15.66;58.22;95697.66;5032243;28;20172;-70
2024/03/31 07:35:10;;;;;;;23.13;4.33;;;;;;;15.79;57.89;95692.22;5041456;28;20576;-72
2024/03/31 07:37:35;;;;;;;15.73;3.90;;;;;;;15.96;57.22;95697.72;5033692;28;20203;-71
2024/03/31 07:40:01;;;;;;;16.57;5.43;;;;;;;16.17;56.67;95692.19;5034329;28;20190;-70
2024/03/31 07:42:27;;;;;;;19.77;4.87;;;;;;;16.40;56.44;95702.81;5040312;28;20199;-71
2024/03/31 07:44:52;;;;;;;22.67;5.00;;;;;;;16.53;55.40;95695.72;5035783;28;20434;-70
2024/03/31 07:47:18;;;;;;;19.00;4.63;;;;;;;16.59;54.75;95694.81;5043911;28;20185;-70
2024/03/31 07:49:43;;;;;;;18.63;5.60;;;;;;;16.77;54.37;95679.88;5037836;28;20260;-70
2024/03/31 07:52:09;;;;;;;11.70;4.10;;;;;;;16.89;53.67;95678.06;5033821;28;20180;-70
2024/03/31 07:54:34;;;;;;;34.23;4.83;;;;;;;16.95;53.71;95674.53;5036047;28;20200;-70
2024/03/31 07:57:00;;;;;;;16.03;4.63;;;;;;;17.11;52.83;95674.88;5033741;28;20659;-71
2024/03/31 07:59:25;;;;;;;21.23;4.33;;;;;;;17.22;52.36;95682.00;5037587;28;20659;-70
2024/03/31 08:01:53;;;;;;;23.00;4.60;;;;;;;17.46;51.94;95681.97;5041761;28;20200;-70
2024/03/31 08:04:19;;;;;;;10.80;3.10;;;;;;;17.70;51.66;95679.25;5033347;28;20879;-70
2024/03/31 08:06:44;;;;;;;22.77;4.67;;;;;;;17.92;50.60;95674.13;5043176;28;20422;-72
2024/03/31 08:09:10;;;;;;;22.17;4.10;;;;;;;17.94;50.14;95678.16;5033844;28;20184;-70
2024/03/31 08:11:35;;;;;;;10.73;2.83;;;;;;;17.81;49.40;95686.38;5036939;28;20233;-70
2024/03/31 08:14:01;;;;;;;31.70;3.60;;;;;;;17.77;49.15;95687.88;5032705;28;20188;-71
2024/03/31 08:16:26;;;;;;;18.70;4.00;;;;;;;17.94;48.92;95678.16;5036031;28;20223;-70
2024/03/31 08:18:52;;;;;;;17.27;3.50;;;;;;;18.21;48.62;95679.47;5030434;28;20843;-71
2024/03/31 08:21:18;;;;;;;20.03;3.40;;;;;;;18.40;48.30;95683.50;5036578;28;20270;-70
2024/03/31 08:23:43;;;;;;;25.40;3.43;;;;;;;18.57;47.20;95691.47;5042049;28;20427;-71
2024/03/31 08:26:08;;;;;;;20.43;3.60;;;;;;;18.80;46.56;95673.78;5049178;28;20295;-70
2024/03/31 08:28:34;;;;;;;31.23;4.13;;;;;;;19.08;46.25;95674.75;5037852;28;20672;-70
2024/03/31 08:30:59;;;;;;;18.80;2.80;;;;;;;19.26;44.52;95670.22;5043488;28;20214;-71
2024/03/31 08:33:25;;;;;;;17.40;2.93;;;;;;;19.45;43.58;95657.47;5044067;28;20180;-71
2024/03/31 08:35:51;;;;;;;19.97;2.87;;;;;;;19.49;43.59;95664.69;5035205;28;20199;-70
2024/03/31 08:38:17;;;;;;;22.57;3.20;;;;;;;19.51;43.50;95656.47;5038515;28;20183;-71
2024/03/31 08:40:46;;;;;;;25.27;3.70;;;;;;;19.53;43.67;95658.91;5034439;28;20434;-70
2024/03/31 08:43:17;;;;;;;24.47;3.40;;;;;;;19.69;42.97;95651.91;5036432;28;20211;-71
2024/03/31 08:45:43;;;;;;;13.03;2.73;;;;;;;19.60;43.27;95648.88;5035629;28;20468;-71
2024/03/31 08:48:09;;;;;;;22.97;3.50;;;;;;;19.61;42.74;95635.34;5037706;28;20423;-70
2024/03/31 08:50:35;;;;;;;18.70;3.20;;;;;;;19.60;43.27;95628.41;5035421;28;20219;-70
2024/03/31 08:53:00;;;;;;;12.67;3.23;;;;;;;19.75;43.11;95622.47;5028944;28;20789;-70
2024/03/31 08:55:26;;;;;;;24.33;3.10;;;;;;;20.01;42.37;95612.16;5033614;28;20209;-70
2024/03/31 08:57:51;;;;;;;16.70;3.00;;;;;;;20.19;42.16;95623.44;5031462;28;20554;-71
2024/03/31 09:00:17;;;;;;;22.17;3.17;;;;;;;20.11;41.58;95630.03;5032153;28;20552;-71
2024/03/31 09:02:42;;;;;;;16.57;3.10;;;;;;;20.00;40.79;95629.16;5032737;28;20204;-71
2024/03/31 09:05:08;;;;;;;20.03;2.97;;;;;;;20.13;40.34;95627.94;5048456;28;20191;-70
2024/03/31 09:07:35;;;;;;;15.43;2.53;;;;;;;20.23;39.76;95619.25;5035520;28;20215;-71
2024/03/31 09:10:04;;;;;;;21.70;2.90;;;;;;;20.50;39.75;95623.72;5034248;28;20195;-71
2024/03/31 09:12:31;;;;;;;18.57;3.00;;;;;;;20.46;39.09;95622.63;5039559;28;20446;-72
2024/03/31 09:14:56;;;;;;;24.40;3.47;;;;;;;20.59;39.29;95619.53;5035324;28;20450;-72
2024/03/31 09:17:22;;;;;;;22.77;4.13;;;;;;;20.75;38.81;95620.47;5030935;28;20419;-71
2024/03/31 09:19:48;;;;;;;17.37;2.83;;;;;;;20.60;38.32;95623.81;5032569;28;20175;-71
2024/03/31 09:22:14;;;;;;;25.93;3.00;;;;;;;20.31;38.81;95626.75;5037891;28;20192;-71
2024/03/31 09:24:44;;;;;;;27.97;2.93;;;;;;;20.15;39.50;95623.16;5030347;28;20553;-70
2024/03/31 09:27:10;;;;;;;17.50;2.70;;;;;;;20.06;39.58;95624.69;5030177;28;20498;-70
2024/03/31 09:29:40;;;;;;;29.50;3.33;;;;;;;19.97;40.15;95613.69;5036749;28;20450;-71
2024/03/31 09:32:07;;;;;;;22.10;2.83;;;;;;;19.94;40.39;95608.88;5032066;28;20179;-71
2024/03/31 09:34:32;;;;;;;18.53;2.77;;;;;;;20.14;40.46;95610.13;5031333;28;20507;-71
2024/03/31 09:36:58;;;;;;;21.20;3.80;;;;;;;20.38;40.44;95610.59;5032987;28;20418;-70
2024/03/31 09:39:24;;;;;;;19.37;3.27;;;;;;;20.69;39.88;95600.19;5039423;28;20185;-71
2024/03/31 09:41:55;;;;;;;18.03;2.60;;;;;;;20.87;38.68;95585.69;5040474;28;20461;-70
2024/03/31 09:44:20;;;;;;;18.77;3.47;;;;;;;20.91;39.00;95586.78;5031983;28;20226;-70
2024/03/31 09:46:48;;;;;;;17.60;3.10;;;;;;;20.79;38.55;95578.19;5029540;28;20426;-70
2024/03/31 09:49:14;;;;;;;18.13;3.20;;;;;;;20.80;38.73;95585.09;5032519;28;20179;-70
2024/03/31 09:51:41;;;;;;;20.40;3.73;;;;;;;20.50;38.56;95575.84;5039627;28;21021;-70
2024/03/31 09:54:36;;;;;;;21.77;3.00;;;;;;;20.28;38.84;95574.09;5027816;28;20437;-70
2024/03/31 09:57:03;;;;;;;16.80;2.93;;;;;;;20.19;39.10;95575.59;5028694;28;20542;-71
2024/03/31 09:59:29;;;;;;;23.87;3.60;;;;;;;20.32;39.29;95567.19;5029401;28;20772;-70
2024/03/31 10:01:55;;;;;;;19.60;3.10;;;;;;;20.65;39.45;95567.97;5024838;28;20467;-71
2024/03/31 10:04:36;;;;;;;23.67;2.97;;;;;;;21.04;38.47;95563.41;5034476;28;20419;-71
2024/03/31 10:07:02;;;;;;;20.40;3.40;;;;;;;21.59;38.34;95561.22;5036958;28;20489;-71
2024/03/31 10:09:29;;;;;;;15.13;3.20;;;;;;;22.00;37.77;95555.19;5036937;28;20425;-71
2024/03/31 10:11:56;;;;;;;19.63;3.20;;;;;;;22.12;36.36;95555.72;5045901;28;20521;-71
2024/03/31 10:14:22;;;;;;;20.37;3.13;;;;;;;22.13;35.75;95557.31;5045615;28;20426;-70
2024/03/31 10:16:48;;;;;;;17.97;3.30;;;;;;;22.32;35.54;95554.09;5010679;28;20587;-70
2024/03/31 10:19:15;;;;;;;27.43;3.20;;;;;;;22.59;35.55;95539.69;5031431;28;20427;-71
2024/03/31 10:21:41;;;;;;;26.80;3.00;;;;;;;22.84;35.32;95525.50;5032328;28;20862;-71
2024/03/31 10:24:08;;;;;;;16.17;3.27;;;;;;;23.13;36.20;95536.34;5034061;28;20419;-71
2024/03/31 10:26:34;;;;;;;35.23;3.63;;;;;;;23.41;34.74;95530.63;5034190;28;20195;-71
2024/03/31 10:29:00;;;;;;;17.93;3.27;;;;;;;23.59;33.71;95524.66;5031882;28;20855;-70
2024/03/31 10:31:25;;;;;;;15.50;2.97;;;;;;;24.02;34.40;95523.31;5039232;28;20609;-71
2024/03/31 10:33:51;;;;;;;21.57;3.47;;;;;;;24.11;31.80;95526.22;5035346;28;20262;-71
2024/03/31 10:36:18;;;;;;;13.20;3.17;;;;;;;24.16;31.99;95518.16;5037444;28;20246;-70
2024/03/31 10:38:43;;;;;;;26.17;3.00;;;;;;;23.94;31.96;95514.03;5039512;28;20500;-71
2024/03/31 10:41:11;;;;;;;15.33;2.60;;;;;;;23.75;31.45;95521.91;5051867;28;20744;-71
2024/03/31 10:43:37;;;;;;;26.87;3.20;;;;;;;23.67;31.35;95514.44;5040217;28;20210;-71
2024/03/31 10:46:02;;;;;;;22.53;3.07;;;;;;;23.53;31.98;95525.75;5036494;28;20442;-71
2024/03/31 10:48:28;;;;;;;25.47;3.63;;;;;;;23.25;33.17;95524.56;5034387;28;20446;-69
2024/03/31 10:50:53;;;;;;;28.27;4.27;;;;;;;23.15;33.18;95525.38;5048739;28;20190;-71
2024/03/31 10:53:26;;;;;;;24.00;3.70;;;;;;;22.86;33.41;95518.03;5041612;28;20187;-71
2024/03/31 10:55:51;;;;;;;24.17;3.30;;;;;;;22.79;33.28;95520.16;5039467;28;20194;-71
2024/03/31 10:58:16;;;;;;;19.43;3.70;;;;;;;22.62;33.30;95517.81;5033979;28;20508;-70
2024/03/31 11:00:43;;;;;;;24.37;3.37;;;;;;;22.39;33.84;95519.97;5033347;28;20279;-71
2024/03/31 11:03:09;;;;;;;23.97;2.90;;;;;;;22.17;34.14;95514.91;5041911;28;20743;-70
2024/03/31 11:05:36;;;;;;;23.87;2.90;;;;;;;21.93;34.28;95526.09;5043819;28;20449;-72
2024/03/31 11:08:02;;;;;;;21.20;3.20;;;;;;;21.71;34.58;95518.34;5042272;28;21199;-70
2024/03/31 11:10:30;;;;;;;29.03;2.90;;;;;;;21.53;34.94;95517.78;5043056;28;20421;-70
2024/03/31 11:12:56;;;;;;;22.23;3.00;;;;;;;21.52;35.58;95518.84;5034915;28;20206;-72
2024/03/31 11:15:21;;;;;;;22.13;3.40;;;;;;;21.41;35.60;95522.53;5035869;28;20457;-70
2024/03/31 11:17:48;;;;;;;25.80;2.60;;;;;;;21.36;35.70;95517.19;5035776;28;20183;-71